sensor_id;sensor_type;location;lat;lon;timestamp;pressure;altitude;pressure_sealevel;temperature;humidity
7760;BME280;3924;48.830;9.262;2023-04-28T00:01:11;98397.94;;;12.31;62.73
7760;BME280;3924;48.830;9.262;2023-04-28T00:03:38;98395.22;;;12.31;63.08
7760;BME280;3924;48.830;9.262;2023-04-28T00:06:04;98396.66;;;12.29;62.96
7760;BME280;3924;48.830;9.262;2023-04-28T00:08:31;98395.53;;;12.30;63.31
7760;BME280;3924;48.830;9.262;2023-04-28T00:10:58;98394.22;;;12.27;62.77
7760;BME280;3924;48.830;9.262;2023-04-28T00:13:24;98396.34;;;12.30;63.58
7760;BME280;3924;48.830;9.262;2023-04-28T00:15:51;98397.16;;;12.31;63.09
7760;BME280;3924;48.830;9.262;2023-04-28T00:18:19;98391.50;;;12.27;63.26
7760;BME280;3924;48.830;9.262;2023-04-28T00:20:46;98380.94;;;12.26;64.08
7760;BME280;3924;48.830;9.262;2023-04-28T00:23:13;98382.56;;;12.27;63.88
7760;BME280;3924;48.830;9.262;2023-04-28T00:25:39;98387.19;;;12.26;63.79
7760;BME280;3924;48.830;9.262;2023-04-28T00:28:06;98395.03;;;12.28;63.83
7760;BME280;3924;48.830;9.262;2023-04-28T00:30:32;98389.47;;;12.33;63.71
7760;BME280;3924;48.830;9.262;2023-04-28T00:32:58;98374.78;;;12.34;63.61
7760;BME280;3924;48.830;9.262;2023-04-28T00:35:25;98370.13;;;12.35;63.01
7760;BME280;3924;48.830;9.262;2023-04-28T00:37:52;98359.25;;;12.35;64.06
7760;BME280;3924;48.830;9.262;2023-04-28T00:40:18;98368.03;;;12.31;63.64
7760;BME280;3924;48.830;9.262;2023-04-28T00:42:44;98367.03;;;12.27;63.42
7760;BME280;3924;48.830;9.262;2023-04-28T00:45:11;98375.72;;;12.29;63.93
7760;BME280;3924;48.830;9.262;2023-04-28T00:47:37;98379.72;;;12.32;64.22
7760;BME280;3924;48.830;9.262;2023-04-28T00:50:05;98371.78;;;12.36;63.37
7760;BME280;3924;48.830;9.262;2023-04-28T00:52:32;98370.44;;;12.33;64.07
7760;BME280;3924;48.830;9.262;2023-04-28T00:54:58;98368.84;;;12.32;63.30
7760;BME280;3924;48.830;9.262;2023-04-28T00:57:25;98354.94;;;12.33;64.21
7760;BME280;3924;48.830;9.262;2023-04-28T00:59:52;98351.91;;;12.35;64.29
7760;BME280;3924;48.830;9.262;2023-04-28T01:02:19;98355.94;;;12.38;64.32
7760;BME280;3924;48.830;9.262;2023-04-28T01:04:46;98355.31;;;12.41;63.58
7760;BME280;3924;48.830;9.262;2023-04-28T01:07:12;98355.81;;;12.43;63.77
7760;BME280;3924;48.830;9.262;2023-04-28T01:09:39;98358.41;;;12.48;64.02
7760;BME280;3924;48.830;9.262;2023-04-28T01:12:05;98353.47;;;12.50;63.94
7760;BME280;3924;48.830;9.262;2023-04-28T01:14:32;98355.06;;;12.51;64.14
7760;BME280;3924;48.830;9.262;2023-04-28T01:16:59;98350.44;;;12.51;63.39
7760;BME280;3924;48.830;9.262;2023-04-28T01:19:26;98349.63;;;12.51;64.10
7760;BME280;3924;48.830;9.262;2023-04-28T01:21:53;98348.03;;;12.50;63.87
7760;BME280;3924;48.830;9.262;2023-04-28T01:24:25;98341.16;;;12.52;64.48
7760;BME280;3924;48.830;9.262;2023-04-28T01:26:51;98331.09;;;12.53;64.28
7760;BME280;3924;48.830;9.262;2023-04-28T01:29:18;98331.09;;;12.53;64.34
7760;BME280;3924;48.830;9.262;2023-04-28T01:31:44;98335.72;;;12.52;64.08
7760;BME280;3924;48.830;9.262;2023-04-28T01:34:10;98324.06;;;12.52;63.93
7760;BME280;3924;48.830;9.262;2023-04-28T01:36:37;98322.44;;;12.51;64.35
7760;BME280;3924;48.830;9.262;2023-04-28T01:39:04;98313.78;;;12.49;64.18
7760;BME280;3924;48.830;9.262;2023-04-28T01:41:31;98313.28;;;12.47;64.63
7760;BME280;3924;48.830;9.262;2023-04-28T01:43:59;98318.41;;;12.48;63.97
7760;BME280;3924;48.830;9.262;2023-04-28T01:46:26;98322.94;;;12.53;64.47
7760;BME280;3924;48.830;9.262;2023-04-28T01:48:52;98321.81;;;12.54;64.54
7760;BME280;3924;48.830;9.262;2023-04-28T01:51:19;98319.09;;;12.54;64.03
7760;BME280;3924;48.830;9.262;2023-04-28T01:53:45;98312.53;;;12.55;64.78
7760;BME280;3924;48.830;9.262;2023-04-28T01:56:12;98318.78;;;12.55;64.83
7760;BME280;3924;48.830;9.262;2023-04-28T01:58:38;98316.38;;;12.54;64.82
7760;BME280;3924;48.830;9.262;2023-04-28T02:01:05;98307.91;;;12.55;64.67
7760;BME280;3924;48.830;9.262;2023-04-28T02:03:32;98304.69;;;12.53;64.63
7760;BME280;3924;48.830;9.262;2023-04-28T02:05:58;98297.47;;;12.49;64.55
7760;BME280;3924;48.830;9.262;2023-04-28T02:08:25;98301.94;;;12.45;64.79
7760;BME280;3924;48.830;9.262;2023-04-28T02:10:51;98304.66;;;12.45;65.10
7760;BME280;3924;48.830;9.262;2023-04-28T02:13:18;98301.94;;;12.45;65.49
7760;BME280;3924;48.830;9.262;2023-04-28T02:15:44;98294.38;;;12.42;65.65
7760;BME280;3924;48.830;9.262;2023-04-28T02:18:10;98287.34;;;12.41;65.89
7760;BME280;3924;48.830;9.262;2023-04-28T02:20:37;98297.09;;;12.42;65.02
7760;BME280;3924;48.830;9.262;2023-04-28T02:23:03;98293.59;;;12.41;65.66
7760;BME280;3924;48.830;9.262;2023-04-28T02:25:30;98297.41;;;12.40;66.07
7760;BME280;3924;48.830;9.262;2023-04-28T02:27:56;98296.63;;;12.40;65.61
7760;BME280;3924;48.830;9.262;2023-04-28T02:30:23;98297.09;;;12.42;65.07
7760;BME280;3924;48.830;9.262;2023-04-28T02:32:49;98291.19;;;12.40;65.47
7760;BME280;3924;48.830;9.262;2023-04-28T02:35:16;98290.69;;;12.38;64.97
7760;BME280;3924;48.830;9.262;2023-04-28T02:37:42;98288.47;;;12.40;66.06
7760;BME280;3924;48.830;9.262;2023-04-28T02:40:09;98277.59;;;12.40;66.18
7760;BME280;3924;48.830;9.262;2023-04-28T02:42:36;98270.06;;;12.37;65.97
7760;BME280;3924;48.830;9.262;2023-04-28T02:45:02;98282.06;;;12.36;65.73
7760;BME280;3924;48.830;9.262;2023-04-28T02:47:29;98281.53;;;12.33;65.89
7760;BME280;3924;48.830;9.262;2023-04-28T02:49:55;98288.59;;;12.35;65.81
7760;BME280;3924;48.830;9.262;2023-04-28T02:52:23;98291.31;;;12.35;66.04
7760;BME280;3924;48.830;9.262;2023-04-28T02:54:50;98291.31;;;12.35;65.90
7760;BME280;3924;48.830;9.262;2023-04-28T02:57:19;98281.88;;;12.32;65.98
7760;BME280;3924;48.830;9.262;2023-04-28T02:59:46;98288.09;;;12.32;66.47
7760;BME280;3924;48.830;9.262;2023-04-28T03:02:12;98292.94;;;12.36;65.61
7760;BME280;3924;48.830;9.262;2023-04-28T03:04:40;98294.53;;;12.37;66.75
7760;BME280;3924;48.830;9.262;2023-04-28T03:07:06;98298.38;;;12.36;66.09
7760;BME280;3924;48.830;9.262;2023-04-28T03:09:33;98303.81;;;12.36;66.58
7760;BME280;3924;48.830;9.262;2023-04-28T03:12:00;98296.25;;;12.32;67.16
7760;BME280;3924;48.830;9.262;2023-04-28T03:14:28;98301.69;;;12.32;66.75
7760;BME280;3924;48.830;9.262;2023-04-28T03:16:54;98304.72;;;12.31;67.10
7760;BME280;3924;48.830;9.262;2023-04-28T03:19:21;98301.53;;;12.29;66.98
7760;BME280;3924;48.830;9.262;2023-04-28T03:21:48;98298.28;;;12.27;67.21
7760;BME280;3924;48.830;9.262;2023-04-28T03:24:14;98300.31;;;12.21;67.92
7760;BME280;3924;48.830;9.262;2023-04-28T03:26:41;98283.47;;;12.11;67.03
7760;BME280;3924;48.830;9.262;2023-04-28T03:29:07;98275.13;;;12.07;67.63
7760;BME280;3924;48.830;9.262;2023-04-28T03:31:34;98271.94;;;12.05;68.35
7760;BME280;3924;48.830;9.262;2023-04-28T03:34:00;98268.63;;;12.08;68.06
7760;BME280;3924;48.830;9.262;2023-04-28T03:36:28;98272.41;;;12.07;69.12
7760;BME280;3924;48.830;9.262;2023-04-28T03:38:54;98261.25;;;12.09;68.23
7760;BME280;3924;48.830;9.262;2023-04-28T03:41:21;98269.59;;;12.12;68.99
7760;BME280;3924;48.830;9.262;2023-04-28T03:43:47;98284.78;;;12.13;68.76
7760;BME280;3924;48.830;9.262;2023-04-28T03:46:14;98278.75;;;12.16;68.46
7760;BME280;3924;48.830;9.262;2023-04-28T03:48:40;98284.16;;;12.16;68.67
7760;BME280;3924;48.830;9.262;2023-04-28T03:51:07;98278.38;;;12.09;68.43
7760;BME280;3924;48.830;9.262;2023-04-28T03:53:33;98270.34;;;12.04;68.78
7760;BME280;3924;48.830;9.262;2023-04-28T03:56:00;98256.88;;;11.99;69.23
7760;BME280;3924;48.830;9.262;2023-04-28T03:58:26;98250.94;;;11.97;69.08
7760;BME280;3924;48.830;9.262;2023-04-28T04:00:54;98252.06;;;11.96;70.16
7760;BME280;3924;48.830;9.262;2023-04-28T04:03:20;98252.53;;;11.98;69.56
7760;BME280;3924;48.830;9.262;2023-04-28T04:05:52;98246.00;;;11.99;70.42
7760;BME280;3924;48.830;9.262;2023-04-28T04:08:20;98253.03;;;12.00;70.06
7760;BME280;3924;48.830;9.262;2023-04-28T04:10:46;98258.47;;;12.00;70.05
7760;BME280;3924;48.830;9.262;2023-04-28T04:13:13;98248.59;;;12.04;70.44
7760;BME280;3924;48.830;9.262;2023-04-28T04:15:39;98247.00;;;12.03;70.85
7760;BME280;3924;48.830;9.262;2023-04-28T04:18:06;98252.44;;;12.03;70.13
7760;BME280;3924;48.830;9.262;2023-04-28T04:20:32;98249.41;;;12.04;70.67
7760;BME280;3924;48.830;9.262;2023-04-28T04:22:59;98240.94;;;12.06;70.09
7760;BME280;3924;48.830;9.262;2023-04-28T04:25:26;98242.53;;;12.07;70.47
7760;BME280;3924;48.830;9.262;2023-04-28T04:27:53;98240.31;;;12.09;70.90
7760;BME280;3924;48.830;9.262;2023-04-28T04:30:20;98245.75;;;12.09;70.62
7760;BME280;3924;48.830;9.262;2023-04-28T04:32:46;98247.84;;;12.12;70.20
7760;BME280;3924;48.830;9.262;2023-04-28T04:35:13;98245.94;;;12.13;70.68
7760;BME280;3924;48.830;9.262;2023-04-28T04:37:39;98248.03;;;12.16;70.44
7760;BME280;3924;48.830;9.262;2023-04-28T04:40:06;98248.84;;;12.16;70.84
7760;BME280;3924;48.830;9.262;2023-04-28T04:42:33;98259.06;;;12.19;71.34
7760;BME280;3924;48.830;9.262;2023-04-28T04:45:00;98255.56;;;12.19;70.76
7760;BME280;3924;48.830;9.262;2023-04-28T04:47:27;98255.56;;;12.19;70.73
7760;BME280;3924;48.830;9.262;2023-04-28T04:49:53;98248.84;;;12.16;71.31
7760;BME280;3924;48.830;9.262;2023-04-28T04:52:20;98249.66;;;12.17;71.46
7760;BME280;3924;48.830;9.262;2023-04-28T04:54:46;98248.53;;;12.18;71.10
7760;BME280;3924;48.830;9.262;2023-04-28T04:57:14;98250.94;;;12.19;71.75
7760;BME280;3924;48.830;9.262;2023-04-28T04:59:40;98250.94;;;12.19;72.25
7760;BME280;3924;48.830;9.262;2023-04-28T05:02:14;98247.09;;;12.20;72.00
7760;BME280;3924;48.830;9.262;2023-04-28T05:04:44;98241.66;;;12.20;71.61
7760;BME280;3924;48.830;9.262;2023-04-28T05:07:34;98232.38;;;12.21;72.58
7760;BME280;3924;48.830;9.262;2023-04-28T05:10:01;98232.09;;;12.23;72.88
7760;BME280;3924;48.830;9.262;2023-04-28T05:12:37;98234.50;;;12.24;72.16
7760;BME280;3924;48.830;9.262;2023-04-28T05:15:47;98234.38;;;12.29;72.34
7760;BME280;3924;48.830;9.262;2023-04-28T05:30:17;98242.56;;;12.38;73.36
7760;BME280;3924;48.830;9.262;2023-04-28T05:33:38;98244.34;;;12.43;72.08
7760;BME280;3924;48.830;9.262;2023-04-28T05:49:47;98245.22;;;12.60;72.87
7760;BME280;3924;48.830;9.262;2023-04-28T05:53:07;98247.47;;;12.58;73.91
7760;BME280;3924;48.830;9.262;2023-04-28T05:56:06;98249.19;;;12.54;73.35
7760;BME280;3924;48.830;9.262;2023-04-28T05:59:24;98246.78;;;12.53;74.48
7760;BME280;3924;48.830;9.262;2023-04-28T06:02:42;98246.00;;;12.52;74.38
7760;BME280;3924;48.830;9.262;2023-04-28T06:06:02;98247.91;;;12.52;74.47
7760;BME280;3924;48.830;9.262;2023-04-28T06:08:39;98244.19;;;12.48;74.33
7760;BME280;3924;48.830;9.262;2023-04-28T06:15:11;98242.72;;;12.42;74.95
7760;BME280;3924;48.830;9.262;2023-04-28T06:22:18;98238.94;;;12.43;76.01
7760;BME280;3924;48.830;9.262;2023-04-28T06:24:53;98240.84;;;12.42;75.50
7760;BME280;3924;48.830;9.262;2023-04-28T06:27:23;98239.72;;;12.43;76.23
7760;BME280;3924;48.830;9.262;2023-04-28T06:34:01;98234.13;;;12.48;76.34
7760;BME280;3924;48.830;9.262;2023-04-28T06:36:44;98231.13;;;12.50;75.97
7760;BME280;3924;48.830;9.262;2023-04-28T07:07:36;98225.94;;;12.79;77.78
7760;BME280;3924;48.830;9.262;2023-04-28T07:26:53;98202.28;;;12.88;77.65
7760;BME280;3924;48.830;9.262;2023-04-28T07:30:53;98200.69;;;12.87;78.07
7760;BME280;3924;48.830;9.262;2023-04-28T07:37:57;98194.44;;;12.87;78.06
7760;BME280;3924;48.830;9.262;2023-04-28T08:00:00;98195.59;;;12.95;79.06
7760;BME280;3924;48.830;9.262;2023-04-28T08:02:27;98205.97;;;12.93;79.38
7760;BME280;3924;48.830;9.262;2023-04-28T08:04:53;98215.75;;;12.94;79.98
7760;BME280;3924;48.830;9.262;2023-04-28T08:07:20;98218.59;;;12.88;80.10
7760;BME280;3924;48.830;9.262;2023-04-28T08:09:47;98219.56;;;12.84;79.26
7760;BME280;3924;48.830;9.262;2023-04-28T08:12:13;98226.44;;;12.81;80.60
7760;BME280;3924;48.830;9.262;2023-04-28T08:14:40;98225.31;;;12.82;79.93
7760;BME280;3924;48.830;9.262;2023-04-28T08:17:07;98222.44;;;12.87;79.95
7760;BME280;3924;48.830;9.262;2023-04-28T08:19:34;98241.97;;;12.90;80.43
7760;BME280;3924;48.830;9.262;2023-04-28T08:22:01;98242.63;;;12.86;80.20
7760;BME280;3924;48.830;9.262;2023-04-28T08:24:33;98253.63;;;12.81;80.41
7760;BME280;3924;48.830;9.262;2023-04-28T08:27:00;98279.88;;;12.77;80.45
7760;BME280;3924;48.830;9.262;2023-04-28T08:29:29;98266.56;;;12.76;80.60
7760;BME280;3924;48.830;9.262;2023-04-28T08:31:58;98256.34;;;12.81;80.50
7760;BME280;3924;48.830;9.262;2023-04-28T08:34:29;98237.97;;;12.87;80.93
7760;BME280;3924;48.830;9.262;2023-04-28T08:36:55;98238.63;;;12.93;80.67
7760;BME280;3924;48.830;9.262;2023-04-28T08:39:22;98249.84;;;12.91;81.12
7760;BME280;3924;48.830;9.262;2023-04-28T08:41:52;98263.91;;;12.84;81.17
7760;BME280;3924;48.830;9.262;2023-04-28T08:44:19;98251.09;;;12.85;81.03
7760;BME280;3924;48.830;9.262;2023-04-28T08:46:47;98240.88;;;12.91;80.86
7760;BME280;3924;48.830;9.262;2023-04-28T08:49:16;98247.75;;;12.97;81.80
7760;BME280;3924;48.830;9.262;2023-04-28T08:51:49;98247.47;;;13.07;80.99
7760;BME280;3924;48.830;9.262;2023-04-28T08:54:16;98251.00;;;13.16;81.31
7760;BME280;3924;48.830;9.262;2023-04-28T08:56:53;98261.47;;;13.23;81.74
7760;BME280;3924;48.830;9.262;2023-04-28T08:59:20;98267.91;;;13.27;81.15
7760;BME280;3924;48.830;9.262;2023-04-28T09:01:48;98272.69;;;13.30;81.16
7760;BME280;3924;48.830;9.262;2023-04-28T09:04:16;98265.50;;;13.34;81.82
7760;BME280;3924;48.830;9.262;2023-04-28T09:06:44;98270.97;;;13.43;81.39
7760;BME280;3924;48.830;9.262;2023-04-28T09:14:17;98270.97;;;13.43;81.74
7760;BME280;3924;48.830;9.262;2023-04-28T09:16:44;98267.44;;;13.51;82.04
7760;BME280;3924;48.830;9.262;2023-04-28T09:19:11;98267.75;;;13.58;81.95
7760;BME280;3924;48.830;9.262;2023-04-28T09:24:28;98268.28;;;13.60;82.05
7760;BME280;3924;48.830;9.262;2023-04-28T09:26:57;98271.31;;;13.67;82.74
7760;BME280;3924;48.830;9.262;2023-04-28T09:29:24;98274.38;;;13.74;81.89
7760;BME280;3924;48.830;9.262;2023-04-28T09:31:51;98276.44;;;13.77;82.25
7760;BME280;3924;48.830;9.262;2023-04-28T09:34:19;98276.13;;;13.87;81.91
7760;BME280;3924;48.830;9.262;2023-04-28T09:36:46;98280.13;;;13.90;82.00
7760;BME280;3924;48.830;9.262;2023-04-28T09:39:13;98274.69;;;13.90;82.10
7760;BME280;3924;48.830;9.262;2023-04-28T09:41:43;98290.38;;;13.84;81.98
7760;BME280;3924;48.830;9.262;2023-04-28T09:44:15;98280.47;;;13.80;82.53
7760;BME280;3924;48.830;9.262;2023-04-28T09:46:46;98274.19;;;13.79;82.59
7760;BME280;3924;48.830;9.262;2023-04-28T09:49:13;98273.09;;;13.80;82.68
7760;BME280;3924;48.830;9.262;2023-04-28T09:51:40;98268.75;;;13.88;82.02
7760;BME280;3924;48.830;9.262;2023-04-28T09:54:07;98274.84;;;13.93;82.76
7760;BME280;3924;48.830;9.262;2023-04-28T09:56:34;98265.38;;;14.00;82.80
7760;BME280;3924;48.830;9.262;2023-04-28T09:59:06;98268.91;;;14.09;82.64
7760;BME280;3924;48.830;9.262;2023-04-28T10:01:37;98255.09;;;14.22;82.28
7760;BME280;3924;48.830;9.262;2023-04-28T10:04:05;98263.09;;;14.36;82.30
7760;BME280;3924;48.830;9.262;2023-04-28T10:06:34;98268.22;;;14.46;81.77
7760;BME280;3924;48.830;9.262;2023-04-28T10:09:04;98263.22;;;14.57;82.22
7760;BME280;3924;48.830;9.262;2023-04-28T10:11:32;98262.84;;;14.76;81.75
7760;BME280;3924;48.830;9.262;2023-04-28T10:13:59;98252.00;;;14.97;81.25
7760;BME280;3924;48.830;9.262;2023-04-28T10:16:29;98254.00;;;15.09;81.80
7760;BME280;3924;48.830;9.262;2023-04-28T10:18:56;98251.59;;;15.07;81.75
7760;BME280;3924;48.830;9.262;2023-04-28T10:21:25;98252.28;;;15.04;81.15
7760;BME280;3924;48.830;9.262;2023-04-28T10:23:58;98259.84;;;14.98;82.49
7760;BME280;3924;48.830;9.262;2023-04-28T10:26:56;98252.13;;;15.00;82.02
7760;BME280;3924;48.830;9.262;2023-04-28T10:29:24;98246.28;;;15.11;82.39
7760;BME280;3924;48.830;9.262;2023-04-28T10:32:24;98252.69;;;15.15;82.28
7760;BME280;3924;48.830;9.262;2023-04-28T10:40:39;98251.03;;;15.94;81.12
7760;BME280;3924;48.830;9.262;2023-04-28T10:43:13;98238.22;;;16.19;80.63
7760;BME280;3924;48.830;9.262;2023-04-28T10:58:42;98253.53;;;16.20;81.41
7760;BME280;3924;48.830;9.262;2023-04-28T11:06:25;98263.78;;;16.23;81.51
7760;BME280;3924;48.830;9.262;2023-04-28T11:08:58;98252.50;;;16.24;81.72
7760;BME280;3924;48.830;9.262;2023-04-28T11:11:34;98252.97;;;16.26;82.02
7760;BME280;3924;48.830;9.262;2023-04-28T11:14:34;98259.91;;;16.24;81.50
7760;BME280;3924;48.830;9.262;2023-04-28T11:19:36;98249.78;;;16.24;81.83
7760;BME280;3924;48.830;9.262;2023-04-28T11:22:23;98257.88;;;16.33;82.18
7760;BME280;3924;48.830;9.262;2023-04-28T11:25:02;98251.19;;;16.42;82.34
7760;BME280;3924;48.830;9.262;2023-04-28T11:27:30;98251.78;;;16.48;82.23
7760;BME280;3924;48.830;9.262;2023-04-28T11:29:58;98257.50;;;16.55;81.55
7760;BME280;3924;48.830;9.262;2023-04-28T11:32:26;98259.19;;;16.60;82.01
7760;BME280;3924;48.830;9.262;2023-04-28T11:34:54;98262.06;;;16.63;81.64
7760;BME280;3924;48.830;9.262;2023-04-28T11:37:20;98252.19;;;16.71;81.63
7760;BME280;3924;48.830;9.262;2023-04-28T11:39:48;98250.69;;;16.74;82.30
7760;BME280;3924;48.830;9.262;2023-04-28T11:42:15;98246.56;;;16.67;82.25
7760;BME280;3924;48.830;9.262;2023-04-28T11:44:49;98248.59;;;16.58;82.52
7760;BME280;3924;48.830;9.262;2023-04-28T11:47:27;98248.25;;;16.48;82.45
7760;BME280;3924;48.830;9.262;2023-04-28T11:49:55;98242.53;;;16.40;83.22
7760;BME280;3924;48.830;9.262;2023-04-28T11:52:22;98244.00;;;16.38;82.73
7760;BME280;3924;48.830;9.262;2023-04-28T11:54:53;98240.91;;;16.39;82.91
7760;BME280;3924;48.830;9.262;2023-04-28T11:57:21;98241.72;;;16.40;82.44
7760;BME280;3924;48.830;9.262;2023-04-28T11:59:49;98246.38;;;16.39;83.34
7760;BME280;3924;48.830;9.262;2023-04-28T12:02:24;98241.06;;;16.43;82.53
7760;BME280;3924;48.830;9.262;2023-04-28T12:04:53;98228.16;;;16.44;83.30
7760;BME280;3924;48.830;9.262;2023-04-28T12:07:20;98241.50;;;16.45;83.44
7760;BME280;3924;48.830;9.262;2023-04-28T12:10:10;98231.69;;;16.44;83.21
7760;BME280;3924;48.830;9.262;2023-04-28T12:12:38;98238.75;;;16.45;83.09
7760;BME280;3924;48.830;9.262;2023-04-28T12:15:18;98234.22;;;16.49;83.20
7760;BME280;3924;48.830;9.262;2023-04-28T12:17:47;98226.91;;;16.53;82.78
7760;BME280;3924;48.830;9.262;2023-04-28T12:20:36;98235.25;;;16.57;83.19
7760;BME280;3924;48.830;9.262;2023-04-28T12:23:04;98242.88;;;16.51;83.07
7760;BME280;3924;48.830;9.262;2023-04-28T12:25:32;98244.00;;;16.38;83.33
7760;BME280;3924;48.830;9.262;2023-04-28T12:28:08;98251.06;;;16.27;83.52
7760;BME280;3924;48.830;9.262;2023-04-28T12:30:36;98243.94;;;16.13;83.51
7760;BME280;3924;48.830;9.262;2023-04-28T12:33:25;98259.94;;;16.03;83.78
7760;BME280;3924;48.830;9.262;2023-04-28T12:35:52;98260.50;;;15.96;84.43
7760;BME280;3924;48.830;9.262;2023-04-28T12:38:23;98247.69;;;15.88;84.12
7760;BME280;3924;48.830;9.262;2023-04-28T12:40:49;98254.84;;;15.80;84.68
7760;BME280;3924;48.830;9.262;2023-04-28T12:43:16;98265.19;;;15.75;84.50
7760;BME280;3924;48.830;9.262;2023-04-28T12:45:42;98264.91;;;15.68;84.33
7760;BME280;3924;48.830;9.262;2023-04-28T12:48:09;98270.72;;;15.57;84.48
7760;BME280;3924;48.830;9.262;2023-04-28T12:50:36;98278.72;;;15.42;84.70
7760;BME280;3924;48.830;9.262;2023-04-28T12:53:03;98279.00;;;15.19;85.09
7760;BME280;3924;48.830;9.262;2023-04-28T12:55:30;98269.44;;;15.04;85.54
7760;BME280;3924;48.830;9.262;2023-04-28T12:57:56;98272.34;;;14.99;85.66
7760;BME280;3924;48.830;9.262;2023-04-28T13:00:23;98263.53;;;14.94;85.76
7760;BME280;3924;48.830;9.262;2023-04-28T13:02:50;98249.84;;;15.02;85.96
7760;BME280;3924;48.830;9.262;2023-04-28T13:05:17;98243.16;;;15.21;85.67
7760;BME280;3924;48.830;9.262;2023-04-28T13:07:44;98229.59;;;15.33;85.62
7760;BME280;3924;48.830;9.262;2023-04-28T13:10:11;98229.94;;;15.52;85.38
7760;BME280;3924;48.830;9.262;2023-04-28T13:12:38;98226.19;;;15.66;84.91
7760;BME280;3924;48.830;9.262;2023-04-28T13:15:05;98216.16;;;15.70;84.29
7760;BME280;3924;48.830;9.262;2023-04-28T13:17:32;98214.03;;;15.75;84.74
7760;BME280;3924;48.830;9.262;2023-04-28T13:20:00;98209.63;;;15.83;84.73
7760;BME280;3924;48.830;9.262;2023-04-28T13:22:28;98223.19;;;15.79;84.84
7760;BME280;3924;48.830;9.262;2023-04-28T13:24:54;98215.63;;;15.76;84.61
7760;BME280;3924;48.830;9.262;2023-04-28T13:27:21;98230.09;;;15.77;84.67
7760;BME280;3924;48.830;9.262;2023-04-28T13:29:48;98224.50;;;15.73;84.87
7760;BME280;3924;48.830;9.262;2023-04-28T13:32:14;98212.34;;;15.83;85.04
7760;BME280;3924;48.830;9.262;2023-04-28T13:34:41;98217.19;;;15.98;84.84
7760;BME280;3924;48.830;9.262;2023-04-28T13:37:07;98221.00;;;16.06;84.23
7760;BME280;3924;48.830;9.262;2023-04-28T13:39:33;98219.97;;;16.10;84.06
7760;BME280;3924;48.830;9.262;2023-04-28T13:42:00;98211.78;;;16.10;84.50
7760;BME280;3924;48.830;9.262;2023-04-28T13:44:26;98213.81;;;16.01;84.57
7760;BME280;3924;48.830;9.262;2023-04-28T13:46:53;98217.28;;;15.90;84.32
7760;BME280;3924;48.830;9.262;2023-04-28T13:49:20;98213.38;;;15.78;84.61
7760;BME280;3924;48.830;9.262;2023-04-28T13:51:47;98216.50;;;15.68;84.64
7760;BME280;3924;48.830;9.262;2023-04-28T13:54:13;98208.69;;;15.58;84.58
7760;BME280;3924;48.830;9.262;2023-04-28T13:56:40;98220.47;;;15.50;85.32
7760;BME280;3924;48.830;9.262;2023-04-28T13:59:08;98205.41;;;15.44;85.58
7760;BME280;3924;48.830;9.262;2023-04-28T14:01:34;98204.50;;;15.40;85.25
7760;BME280;3924;48.830;9.262;2023-04-28T14:04:01;98206.97;;;15.32;85.00
7760;BME280;3924;48.830;9.262;2023-04-28T14:06:28;98212.75;;;15.31;85.00
7760;BME280;3924;48.830;9.262;2023-04-28T14:08:55;98209.81;;;15.36;85.30
7760;BME280;3924;48.830;9.262;2023-04-28T14:11:21;98202.03;;;15.47;85.25
7760;BME280;3924;48.830;9.262;2023-04-28T14:13:48;98189.28;;;15.51;84.90
7760;BME280;3924;48.830;9.262;2023-04-28T14:16:14;98188.44;;;15.59;85.21
7760;BME280;3924;48.830;9.262;2023-04-28T14:18:41;98179.72;;;15.66;84.76
7760;BME280;3924;48.830;9.262;2023-04-28T14:21:07;98188.84;;;15.70;84.51
7760;BME280;3924;48.830;9.262;2023-04-28T14:23:34;98203.00;;;15.72;84.78
7760;BME280;3924;48.830;9.262;2023-04-28T14:26:01;98198.19;;;15.69;84.46
7760;BME280;3924;48.830;9.262;2023-04-28T14:28:28;98181.97;;;15.64;84.79
7760;BME280;3924;48.830;9.262;2023-04-28T14:30:54;98184.56;;;15.60;84.90
7760;BME280;3924;48.830;9.262;2023-04-28T14:33:21;98171.69;;;15.60;84.70
7760;BME280;3924;48.830;9.262;2023-04-28T14:35:48;98170.72;;;15.65;85.07
7760;BME280;3924;48.830;9.262;2023-04-28T14:38:14;98174.25;;;15.66;85.02
7760;BME280;3924;48.830;9.262;2023-04-28T14:40:40;98166.88;;;15.57;84.90
7760;BME280;3924;48.830;9.262;2023-04-28T14:43:09;98152.66;;;15.52;85.01
7760;BME280;3924;48.830;9.262;2023-04-28T14:45:37;98167.75;;;15.49;85.33
7760;BME280;3924;48.830;9.262;2023-04-28T14:48:03;98167.91;;;15.53;84.96
7760;BME280;3924;48.830;9.262;2023-04-28T14:50:32;98165.28;;;15.56;85.13
7760;BME280;3924;48.830;9.262;2023-04-28T14:52:58;98166.06;;;15.66;85.57
7760;BME280;3924;48.830;9.262;2023-04-28T14:55:30;98172.25;;;15.75;85.36
7760;BME280;3924;48.830;9.262;2023-04-28T14:57:57;98167.97;;;15.86;84.96
7760;BME280;3924;48.830;9.262;2023-04-28T15:00:23;98172.19;;;15.96;84.77
7760;BME280;3924;48.830;9.262;2023-04-28T15:02:52;98170.06;;;16.01;84.74
7760;BME280;3924;48.830;9.262;2023-04-28T15:05:19;98176.78;;;16.04;84.67
7760;BME280;3924;48.830;9.262;2023-04-28T15:07:46;98173.25;;;16.03;84.56
7760;BME280;3924;48.830;9.262;2023-04-28T15:10:12;98181.34;;;16.00;85.03
7760;BME280;3924;48.830;9.262;2023-04-28T15:12:39;98181.53;;;15.95;85.05
7760;BME280;3924;48.830;9.262;2023-04-28T15:15:08;98172.75;;;15.89;85.00
7760;BME280;3924;48.830;9.262;2023-04-28T15:17:36;98180.25;;;15.80;85.26
7760;BME280;3924;48.830;9.262;2023-04-28T15:20:03;98175.97;;;15.70;85.68
7760;BME280;3924;48.830;9.262;2023-04-28T15:22:30;98173.91;;;15.67;85.70
7760;BME280;3924;48.830;9.262;2023-04-28T15:24:57;98173.13;;;15.67;85.65
7760;BME280;3924;48.830;9.262;2023-04-28T15:27:24;98171.19;;;15.67;86.01
7760;BME280;3924;48.830;9.262;2023-04-28T15:29:50;98169.06;;;15.73;85.97
7760;BME280;3924;48.830;9.262;2023-04-28T15:32:17;98166.09;;;15.78;85.47
7760;BME280;3924;48.830;9.262;2023-04-28T15:34:44;98161.75;;;15.77;85.83
7760;BME280;3924;48.830;9.262;2023-04-28T15:37:41;98168.50;;;15.79;85.79
7760;BME280;3924;48.830;9.262;2023-04-28T15:40:13;98166.22;;;15.81;85.36
7760;BME280;3924;48.830;9.262;2023-04-28T15:42:40;98165.44;;;15.81;85.84
7760;BME280;3924;48.830;9.262;2023-04-28T15:45:21;98165.44;;;15.81;85.92
7760;BME280;3924;48.830;9.262;2023-04-28T15:47:49;98160.31;;;15.79;85.64
7760;BME280;3924;48.830;9.262;2023-04-28T15:50:16;98155.97;;;15.78;86.30
7760;BME280;3924;48.830;9.262;2023-04-28T15:52:46;98158.38;;;15.80;85.52
7760;BME280;3924;48.830;9.262;2023-04-28T15:55:16;98155.16;;;15.78;85.93
7760;BME280;3924;48.830;9.262;2023-04-28T15:57:43;98162.09;;;15.75;86.12